Time;durP1;ratioP1;P1;durP2;ratioP2;P2;SDS_P1;SDS_P2;PMS_P1;PMS_P2;Temp;Humidity;BMP_temperature;BMP_pressure;BME280_temperature;BME280_humidity;BME280_pressure;Samples;Min_cycle;Max_cycle;Signal;HPM_P1;HPM_P2
2021/10/17 00:01:20;;;;;;;40.60;22.90;;;;;;;9.41;62.23;99568.95;234303;1204;138938;-64
2021/10/17 00:06:28;;;;;;;51.30;23.90;;;;;;;9.35;62.40;99566.24;234306;1204;138837;-61
2021/10/17 00:11:31;;;;;;;43.40;23.50;;;;;;;9.35;62.62;99568.03;234411;1204;138745;-63
2021/10/17 00:16:34;;;;;;;50.50;25.70;;;;;;;9.29;62.67;99568.48;234329;1204;139805;-62
2021/10/17 00:21:37;;;;;;;47.10;24.30;;;;;;;9.23;62.69;99569.63;234446;1204;139899;-63
2021/10/17 00:26:40;;;;;;;50.80;24.80;;;;;;;9.23;62.85;99570.85;234331;1204;139244;-62
2021/10/17 00:31:43;;;;;;;46.50;23.80;;;;;;;9.23;63.05;99568.39;234374;1202;138745;-63
2021/10/17 00:36:48;;;;;;;47.50;25.10;;;;;;;9.20;63.16;99566.40;234291;1204;138953;-64
2021/10/17 00:41:52;;;;;;;44.30;23.00;;;;;;;9.19;63.31;99565.94;234334;1204;138671;-64
2021/10/17 00:46:55;;;;;;;44.30;24.60;;;;;;;9.10;63.00;99563.35;234294;1204;139144;-64
2021/10/17 00:51:58;;;;;;;44.10;23.00;;;;;;;9.13;63.51;99563.56;234557;1204;139304;-65
2021/10/17 00:57:01;;;;;;;42.10;24.30;;;;;;;9.09;63.39;99563.05;234203;1204;139397;-63
2021/10/17 01:02:05;;;;;;;42.30;23.90;;;;;;;8.99;63.49;99565.64;234399;1204;138686;-63
2021/10/17 01:07:09;;;;;;;46.40;24.90;;;;;;;8.94;63.45;99562.71;234335;1204;139035;-63
2021/10/17 01:12:13;;;;;;;43.80;23.30;;;;;;;9.01;63.53;99563.63;234419;1204;139706;-63
2021/10/17 01:17:16;;;;;;;49.30;25.00;;;;;;;9.07;63.84;99562.77;234228;1204;139063;-60
2021/10/17 01:22:24;;;;;;;47.30;25.10;;;;;;;9.06;63.64;99560.03;234365;1204;138810;-62
2021/10/17 01:27:29;;;;;;;47.90;25.50;;;;;;;9.00;63.49;99561.70;234323;1204;139247;-66
2021/10/17 01:32:33;;;;;;;44.90;24.80;;;;;;;9.01;64.03;99560.96;234325;1205;138789;-64
2021/10/17 01:37:36;;;;;;;45.60;24.50;;;;;;;9.07;64.21;99557.51;234402;1205;138626;-64
2021/10/17 01:42:40;;;;;;;47.90;25.20;;;;;;;9.02;63.99;99558.08;234449;1204;138947;-63
2021/10/17 01:47:51;;;;;;;55.40;26.50;;;;;;;8.95;63.78;99558.77;234458;1204;138809;-60
2021/10/17 01:52:56;;;;;;;49.50;26.10;;;;;;;8.90;64.00;99556.72;234395;1204;138752;-60
2021/10/17 01:57:59;;;;;;;49.80;26.30;;;;;;;8.84;63.88;99548.82;234440;1204;140030;-63
2021/10/17 02:03:03;;;;;;;53.20;26.80;;;;;;;8.81;64.06;99547.58;234406;1204;138904;-62
2021/10/17 02:08:12;;;;;;;50.70;27.20;;;;;;;8.89;64.61;99550.92;234348;1203;138815;-61
2021/10/17 02:13:16;;;;;;;51.20;26.50;;;;;;;8.97;64.36;99544.67;234406;1204;139028;-61
2021/10/17 02:18:19;;;;;;;49.40;27.80;;;;;;;8.83;64.02;99540.58;233543;1204;138662;-64
2021/10/17 02:23:23;;;;;;;51.10;27.00;;;;;;;8.80;64.42;99545.33;234253;1204;139937;-61
2021/10/17 02:28:29;;;;;;;47.90;26.80;;;;;;;8.76;64.08;99545.48;234515;1204;138629;-61
2021/10/17 02:33:33;;;;;;;52.70;28.90;;;;;;;8.58;64.26;99541.40;234422;1204;139520;-65
2021/10/17 02:38:36;;;;;;;54.50;29.00;;;;;;;8.51;64.56;99539.20;234176;1204;138699;-60
2021/10/17 02:43:40;;;;;;;50.20;26.90;;;;;;;8.51;64.60;99533.19;234354;1204;139159;-62
2021/10/17 02:48:43;;;;;;;49.50;26.30;;;;;;;8.53;64.48;99525.33;234390;1205;139130;-67
2021/10/17 02:53:46;;;;;;;50.00;27.40;;;;;;;8.44;64.48;99524.33;234329;1204;138646;-59
2021/10/17 02:58:49;;;;;;;52.30;28.40;;;;;;;8.29;64.52;99521.79;234393;1204;138974;-59
2021/10/17 03:03:52;;;;;;;50.70;28.10;;;;;;;8.18;64.95;99523.68;234317;1204;139358;-60
2021/10/17 03:08:55;;;;;;;55.70;28.90;;;;;;;8.14;64.98;99522.99;234418;1204;139119;-61
2021/10/17 03:14:01;;;;;;;55.80;29.50;;;;;;;8.13;65.37;99524.61;234367;1204;138812;-59
2021/10/17 03:19:11;;;;;;;54.00;28.30;;;;;;;8.21;65.39;99529.91;234406;1204;138764;-61
2021/10/17 03:24:14;;;;;;;52.50;27.80;;;;;;;8.24;65.05;99527.84;234207;1204;139745;-58
2021/10/17 03:29:18;;;;;;;54.00;27.40;;;;;;;8.29;65.12;99529.02;234393;1204;140689;-58
2021/10/17 03:34:25;;;;;;;46.90;25.90;;;;;;;8.30;65.13;99526.70;234459;1204;139781;-60
2021/10/17 03:39:28;;;;;;;55.10;27.80;;;;;;;8.22;64.96;99518.92;234392;1204;138791;-64
2021/10/17 03:44:32;;;;;;;51.00;27.20;;;;;;;8.09;64.89;99514.72;234301;1204;139417;-64
2021/10/17 03:49:35;;;;;;;48.80;26.50;;;;;;;7.95;65.01;99512.67;234301;1205;138763;-60
2021/10/17 03:54:43;;;;;;;50.50;26.90;;;;;;;7.87;65.22;99515.68;234289;1204;138843;-61
2021/10/17 03:59:46;;;;;;;46.90;25.40;;;;;;;7.89;65.43;99519.49;234354;1205;140255;-60
2021/10/17 04:04:50;;;;;;;42.00;23.90;;;;;;;7.92;65.30;99514.06;234190;1204;139880;-61
2021/10/17 04:09:54;;;;;;;46.70;26.60;;;;;;;7.86;65.29;99512.77;234475;1204;138874;-67
2021/10/17 04:14:58;;;;;;;48.30;26.80;;;;;;;7.90;65.66;99517.88;234385;1200;139405;-64
2021/10/17 04:20:03;;;;;;;50.70;25.40;;;;;;;7.95;65.57;99514.10;234381;1205;139895;-65
2021/10/17 04:25:06;;;;;;;46.00;25.30;;;;;;;7.85;65.34;99511.53;234382;1204;138292;-60
2021/10/17 04:30:11;;;;;;;48.90;26.40;;;;;;;7.80;65.22;99517.23;234423;1204;139222;-61
2021/10/17 04:35:15;;;;;;;47.00;25.00;;;;;;;7.77;65.30;99515.58;234376;1204;138811;-61
2021/10/17 04:40:21;;;;;;;45.50;24.30;;;;;;;7.74;65.37;99518.18;234357;1204;139055;-60
2021/10/17 04:45:25;;;;;;;40.00;22.60;;;;;;;7.72;65.22;99516.50;234318;1204;140013;-65
2021/10/17 04:50:28;;;;;;;35.60;21.40;;;;;;;7.67;65.22;99519.19;234311;1204;140305;-62
2021/10/17 04:55:32;;;;;;;41.10;22.60;;;;;;;7.66;65.22;99522.95;234352;1204;139332;-61
2021/10/17 05:00:38;;;;;;;38.00;21.50;;;;;;;7.59;65.23;99522.70;234379;1204;138706;-61
2021/10/17 05:05:42;;;;;;;41.50;23.10;;;;;;;7.58;65.34;99520.80;234353;1204;139305;-64
2021/10/17 05:10:46;;;;;;;46.00;24.60;;;;;;;7.64;65.53;99526.20;234411;1204;138730;-63
2021/10/17 05:15:49;;;;;;;44.80;26.10;;;;;;;7.68;65.62;99531.52;234438;1204;138698;-66
2021/10/17 05:20:53;;;;;;;58.60;28.50;;;;;;;7.62;65.56;99537.59;234341;1204;139477;-60
2021/10/17 05:25:56;;;;;;;51.70;28.20;;;;;;;7.60;65.86;99541.73;234378;1204;138447;-61
2021/10/17 05:31:00;;;;;;;50.50;27.90;;;;;;;7.70;66.03;99546.98;234340;1204;139569;-66
2021/10/17 05:36:06;;;;;;;52.60;28.90;;;;;;;7.76;65.93;99548.85;234241;1204;139248;-61
2021/10/17 05:41:09;;;;;;;48.30;27.20;;;;;;;7.75;65.92;99556.83;234407;1202;138885;-62
2021/10/17 05:46:14;;;;;;;42.00;26.20;;;;;;;7.75;65.90;99567.23;234486;1204;139726;-59
2021/10/17 05:51:18;;;;;;;50.30;27.60;;;;;;;7.76;65.98;99574.27;234367;1204;139507;-62
2021/10/17 05:56:23;;;;;;;50.30;28.60;;;;;;;7.81;66.08;99574.77;234351;1205;139024;-62
2021/10/17 06:01:27;;;;;;;56.80;27.00;;;;;;;7.86;65.93;99571.20;234412;1204;142241;-63
2021/10/17 06:06:44;;;;;;;45.20;24.80;;;;;;;7.85;65.94;99574.25;234274;1204;138898;-62
2021/10/17 06:11:48;;;;;;;47.60;24.90;;;;;;;7.80;65.75;99573.05;234241;1204;140012;-62
2021/10/17 06:16:52;;;;;;;46.60;22.90;;;;;;;7.76;65.96;99578.85;234363;1204;139573;-62
2021/10/17 06:21:55;;;;;;;43.40;22.30;;;;;;;7.79;65.95;99581.23;234503;1204;138948;-58
2021/10/17 06:26:58;;;;;;;37.10;21.50;;;;;;;7.81;66.03;99583.77;234298;1204;141008;-59
2021/10/17 06:32:02;;;;;;;37.20;20.80;;;;;;;7.79;65.93;99585.78;234422;1204;139056;-58
2021/10/17 06:37:06;;;;;;;88.80;56.30;;;;;;;7.80;66.11;99586.47;234308;1205;139743;-62
2021/10/17 06:42:10;;;;;;;42.80;24.90;;;;;;;8.06;66.94;99588.20;234413;1203;140116;-58
2021/10/17 06:47:48;;;;;;;37.80;21.10;;;;;;;8.33;66.33;99588.09;234342;1204;139403;-58
2021/10/17 06:52:51;;;;;;;36.90;20.30;;;;;;;8.37;66.04;99587.38;234276;1204;140041;-60
2021/10/17 06:57:54;;;;;;;33.80;18.00;;;;;;;8.46;65.86;99587.71;234453;1204;139607;-58
2021/10/17 07:02:58;;;;;;;32.10;17.90;;;;;;;8.51;65.70;99589.60;234318;1204;139246;-61
2021/10/17 07:08:03;;;;;;;30.30;17.90;;;;;;;8.51;65.35;99593.30;234381;1204;139693;-58
2021/10/17 07:13:07;;;;;;;30.10;16.50;;;;;;;8.52;65.26;99596.64;234430;1204;138928;-61
2021/10/17 07:18:25;;;;;;;30.10;16.00;;;;;;;8.54;65.36;99597.98;234328;1205;139097;-60
2021/10/17 07:23:28;;;;;;;29.50;16.20;;;;;;;8.52;64.91;99598.41;234337;1204;139376;-63
2021/10/17 07:28:31;;;;;;;32.50;15.20;;;;;;;8.48;64.71;99597.70;234441;1204;139185;-60
2021/10/17 07:33:44;;;;;;;26.40;16.20;;;;;;;8.50;64.84;99598.48;234352;1205;142601;-59
2021/10/17 07:38:48;;;;;;;28.30;15.40;;;;;;;8.58;65.16;99603.10;234252;1204;138822;-63
2021/10/17 07:43:52;;;;;;;29.90;16.20;;;;;;;8.62;64.69;99605.75;234322;1204;141961;-60
2021/10/17 07:48:58;;;;;;;30.30;17.20;;;;;;;8.77;64.97;99604.54;234386;1204;139294;-61
2021/10/17 07:54:02;;;;;;;33.30;17.20;;;;;;;8.96;64.67;99606.13;234368;1204;139026;-59
2021/10/17 07:59:09;;;;;;;30.70;17.10;;;;;;;9.08;64.61;99607.69;234371;1204;139459;-58
2021/10/17 08:04:13;;;;;;;33.10;17.40;;;;;;;9.13;64.25;99604.08;234490;1204;139362;-61
2021/10/17 08:09:32;;;;;;;30.30;15.30;;;;;;;9.14;64.13;99600.68;234284;1204;140162;-59
2021/10/17 08:14:36;;;;;;;29.90;16.60;;;;;;;9.17;64.15;99601.10;234353;1204;139052;-59
2021/10/17 08:19:39;;;;;;;31.90;16.60;;;;;;;9.23;64.18;99602.21;234311;1204;138454;-60
2021/10/17 08:24:43;;;;;;;30.00;16.00;;;;;;;9.31;64.23;99608.21;234384;1204;138720;-59
2021/10/17 08:29:46;;;;;;;27.50;15.60;;;;;;;9.36;63.81;99610.10;234342;1204;139105;-61
2021/10/17 08:34:50;;;;;;;26.40;14.70;;;;;;;9.50;63.95;99611.91;234114;1204;139770;-59
2021/10/17 08:39:54;;;;;;;27.20;14.50;;;;;;;9.66;63.85;99608.62;234490;1204;139945;-66
2021/10/17 08:45:11;;;;;;;23.40;14.20;;;;;;;9.88;63.74;99606.29;234257;1205;138572;-61
2021/10/17 08:50:16;;;;;;;24.60;13.80;;;;;;;10.17;63.38;99608.90;234331;1205;139354;-56
2021/10/17 08:55:19;;;;;;;31.50;17.80;;;;;;;10.23;62.88;99602.44;234312;1205;138961;-59
2021/10/17 09:00:38;;;;;;;22.40;14.30;;;;;;;10.32;62.80;99603.20;234359;1204;139609;-64
2021/10/17 09:05:50;;;;;;;21.60;12.00;;;;;;;10.37;62.47;99596.73;234035;1204;138709;-63
2021/10/17 09:10:53;;;;;;;21.10;11.90;;;;;;;10.41;62.50;99597.23;234421;1204;139934;-60
2021/10/17 09:15:57;;;;;;;23.60;12.40;;;;;;;10.57;62.36;99602.62;234367;1205;138998;-61
2021/10/17 09:21:04;;;;;;;21.70;11.90;;;;;;;10.65;61.68;99605.55;234277;1204;138989;-61
2021/10/17 09:26:10;;;;;;;18.60;11.20;;;;;;;10.80;62.34;99606.53;234345;1204;139705;-60
2021/10/17 09:31:16;;;;;;;21.40;11.00;;;;;;;11.05;61.92;99599.49;234217;1204;138930;-61
2021/10/17 09:36:30;;;;;;;10.40;6.80;;;;;;;11.28;61.26;99595.38;233930;1205;138865;-63
2021/10/17 09:41:51;;;;;;;11.50;5.50;;;;;;;11.34;60.15;99587.59;234220;1204;139037;-61
2021/10/17 09:46:58;;;;;;;11.80;4.90;;;;;;;11.37;59.48;99587.40;234146;1204;139753;-61
2021/10/17 09:52:10;;;;;;;8.00;4.20;;;;;;;11.41;58.96;99585.23;234453;1204;139194;-62
2021/10/17 09:57:16;;;;;;;21.70;13.30;;;;;;;11.53;58.50;99582.59;234346;1204;138500;-61
2021/10/17 10:02:19;;;;;;;9.00;5.30;;;;;;;11.70;57.94;99577.70;234326;1203;139173;-61
2021/10/17 10:07:26;;;;;;;8.00;3.60;;;;;;;11.85;57.55;99575.23;234230;1205;138908;-60
2021/10/17 10:12:29;;;;;;;5.70;3.40;;;;;;;11.98;57.06;99575.40;234311;1204;139076;-61
2021/10/17 10:17:35;;;;;;;9.40;3.70;;;;;;;12.06;56.45;99571.00;234245;1204;138851;-61
2021/10/17 10:22:43;;;;;;;5.70;3.10;;;;;;;12.18;56.42;99564.95;234435;1196;138894;-61
2021/10/17 10:27:47;;;;;;;9.30;4.10;;;;;;;12.23;55.55;99565.33;234374;1204;138290;-60
2021/10/17 10:33:05;;;;;;;6.80;3.80;;;;;;;12.17;54.98;99566.94;234528;1204;141163;-63
2021/10/17 10:38:08;;;;;;;12.10;4.10;;;;;;;12.08;54.84;99566.05;233577;1196;139004;-64
2021/10/17 10:43:17;;;;;;;106.30;76.50;;;;;;;12.08;54.71;99561.07;234478;1203;138544;-60
2021/10/17 10:48:23;;;;;;;41.50;22.60;;;;;;;12.16;55.24;99552.98;234620;1204;140221;-61
2021/10/17 10:53:48;;;;;;;7.70;4.80;;;;;;;12.40;55.30;99555.04;234650;1204;138874;-62
2021/10/17 10:58:55;;;;;;;7.10;3.70;;;;;;;12.46;54.56;99550.75;233844;1203;138512;-62
2021/10/17 11:03:58;;;;;;;7.30;3.50;;;;;;;12.47;54.15;99543.61;234783;1203;139564;-60
2021/10/17 11:09:20;;;;;;;7.40;3.40;;;;;;;12.49;53.84;99545.80;234240;1203;139014;-63
2021/10/17 11:14:24;;;;;;;8.40;4.10;;;;;;;12.38;53.34;99543.27;234670;1204;138500;-62
2021/10/17 11:19:29;;;;;;;8.20;3.90;;;;;;;12.37;53.50;99540.68;234603;1204;138636;-63
2021/10/17 11:24:33;;;;;;;6.50;3.70;;;;;;;12.42;53.61;99532.68;234733;1203;141274;-62
2021/10/17 11:29:43;;;;;;;7.00;3.50;;;;;;;12.46;53.47;99530.30;234603;1203;138664;-62
2021/10/17 11:35:00;;;;;;;7.80;3.90;;;;;;;12.47;53.13;99526.72;234646;1203;138821;-62
2021/10/17 11:40:12;;;;;;;8.10;3.70;;;;;;;12.48;53.09;99525.52;234690;1203;138707;-63
2021/10/17 11:45:24;;;;;;;5.90;3.90;;;;;;;12.48;53.17;99515.58;234750;1203;138933;-60
2021/10/17 11:50:29;;;;;;;8.90;3.60;;;;;;;12.47;52.67;99513.88;234610;1204;138997;-61
2021/10/17 11:55:50;;;;;;;8.70;3.70;;;;;;;12.38;52.47;99509.27;234563;1204;138828;-61
2021/10/17 12:01:05;;;;;;;7.40;3.70;;;;;;;12.39;52.72;99503.84;234636;1204;138584;-61
2021/10/17 12:06:17;;;;;;;7.40;3.70;;;;;;;12.39;52.38;99496.92;234669;1203;139034;-61
2021/10/17 12:11:21;;;;;;;8.20;4.10;;;;;;;12.42;52.61;99486.77;234470;1204;138205;-61
2021/10/17 12:16:44;;;;;;;6.50;3.90;;;;;;;12.48;52.55;99475.19;234578;1204;138898;-62
2021/10/17 12:21:48;;;;;;;5.50;3.50;;;;;;;12.56;52.51;99473.42;234684;1203;138436;-63
2021/10/17 12:26:56;;;;;;;9.00;4.80;;;;;;;12.72;52.61;99465.47;234560;1204;138426;-63
2021/10/17 12:32:02;;;;;;;5.90;3.90;;;;;;;12.87;51.90;99469.13;234573;1203;138492;-62
2021/10/17 12:37:05;;;;;;;11.30;4.40;;;;;;;12.95;51.56;99469.48;234189;1205;139008;-63
2021/10/17 12:42:08;;;;;;;8.50;3.90;;;;;;;13.02;51.48;99458.20;234513;1204;138685;-62
2021/10/17 12:47:12;;;;;;;7.70;3.60;;;;;;;12.98;51.22;99457.72;234690;1203;139004;-61
2021/10/17 12:52:26;;;;;;;8.40;4.20;;;;;;;12.93;50.99;99455.06;234708;1203;138506;-60
2021/10/17 12:57:29;;;;;;;349.90;251.00;;;;;;;13.00;51.25;99450.86;234666;1203;138102;-61
2021/10/17 13:02:37;;;;;;;66.40;41.10;;;;;;;13.17;51.78;99452.09;234542;1204;139310;-60
2021/10/17 13:07:40;;;;;;;10.80;5.70;;;;;;;13.27;51.35;99458.93;234270;1204;139118;-60
2021/10/17 13:12:52;;;;;;;9.60;4.70;;;;;;;13.31;51.41;99459.87;234622;1204;138469;-59
2021/10/17 13:17:57;;;;;;;8.20;4.30;;;;;;;13.28;50.95;99460.45;234489;1203;138454;-59
2021/10/17 13:23:03;;;;;;;7.00;4.30;;;;;;;13.26;51.06;99460.73;234622;1203;139074;-63
2021/10/17 13:28:08;;;;;;;8.00;4.20;;;;;;;13.27;50.94;99459.08;234599;1204;138420;-62
2021/10/17 13:33:11;;;;;;;10.60;4.00;;;;;;;13.23;50.72;99455.61;234511;1204;138982;-61
2021/10/17 13:38:15;;;;;;;6.80;3.80;;;;;;;13.14;50.36;99448.16;234662;1203;138639;-63
2021/10/17 13:43:19;;;;;;;9.20;4.10;;;;;;;13.03;50.16;99443.55;234578;1203;138778;-64
2021/10/17 13:48:22;;;;;;;10.10;4.50;;;;;;;12.98;50.37;99440.64;234668;1204;139997;-61
2021/10/17 13:53:25;;;;;;;9.90;4.60;;;;;;;12.94;50.61;99435.52;234632;1204;138326;-64
2021/10/17 13:58:29;;;;;;;7.30;4.60;;;;;;;12.94;50.52;99434.30;234146;1203;139219;-60
2021/10/17 14:03:32;;;;;;;7.10;4.90;;;;;;;12.86;50.15;99424.86;234450;1203;138569;-63
2021/10/17 14:08:36;;;;;;;10.30;4.70;;;;;;;12.79;50.22;99429.06;234493;1203;138020;-62
2021/10/17 14:13:43;;;;;;;9.40;4.90;;;;;;;12.72;49.98;99428.49;234628;1204;140551;-63
2021/10/17 14:18:46;;;;;;;10.50;5.00;;;;;;;12.64;50.15;99430.04;234158;1203;138409;-61
2021/10/17 14:23:50;;;;;;;9.70;5.40;;;;;;;12.64;50.33;99430.24;234621;1203;138451;-61
2021/10/17 14:28:53;;;;;;;68.80;42.90;;;;;;;12.60;50.28;99430.66;234763;1203;138191;-59
2021/10/17 14:33:56;;;;;;;10.50;6.00;;;;;;;12.62;50.53;99432.83;234232;1204;138953;-59
2021/10/17 14:38:59;;;;;;;11.10;5.00;;;;;;;12.57;50.03;99434.05;234210;1204;141591;-61
2021/10/17 14:44:03;;;;;;;10.60;4.80;;;;;;;12.52;49.73;99429.20;234353;1204;138908;-61
2021/10/17 14:49:06;;;;;;;8.50;4.70;;;;;;;12.45;49.85;99427.71;234190;1204;139409;-65
2021/10/17 14:54:09;;;;;;;9.70;5.40;;;;;;;12.38;49.86;99432.20;234269;1204;138265;-61
2021/10/17 14:59:12;;;;;;;41.70;24.10;;;;;;;12.33;49.94;99441.27;234267;1204;138789;-60
2021/10/17 15:04:15;;;;;;;16.10;9.00;;;;;;;12.31;50.52;99445.08;234394;1204;138919;-61
2021/10/17 15:09:18;;;;;;;12.00;6.50;;;;;;;12.28;50.66;99447.10;234149;1204;140686;-61
2021/10/17 15:14:22;;;;;;;11.20;6.90;;;;;;;12.24;50.49;99457.27;234298;1203;139001;-61
2021/10/17 15:19:26;;;;;;;11.50;6.30;;;;;;;12.16;50.23;99461.34;233923;1204;139200;-62
2021/10/17 15:24:29;;;;;;;14.40;6.50;;;;;;;12.09;50.31;99461.43;234089;1205;139151;-61
2021/10/17 15:29:32;;;;;;;13.60;7.60;;;;;;;12.02;50.85;99461.33;234269;1204;139184;-58
2021/10/17 15:34:35;;;;;;;16.90;8.50;;;;;;;11.93;50.70;99462.02;234441;1204;139299;-59
2021/10/17 15:39:38;;;;;;;681.90;498.30;;;;;;;11.84;50.97;99469.20;234250;1203;139175;-61
2021/10/17 15:44:41;;;;;;;28.20;15.80;;;;;;;11.81;51.24;99472.16;234229;1204;140409;-65
2021/10/17 15:49:46;;;;;;;27.40;15.70;;;;;;;11.71;51.11;99481.83;234145;1204;140096;-61
2021/10/17 15:54:50;;;;;;;21.30;9.60;;;;;;;11.61;51.47;99492.05;234309;1204;139031;-61
2021/10/17 15:59:53;;;;;;;17.10;9.70;;;;;;;11.51;51.20;99498.28;234202;1204;139368;-62
2021/10/17 16:04:56;;;;;;;19.00;10.50;;;;;;;11.43;51.38;99503.60;234293;1204;139497;-64
2021/10/17 16:09:59;;;;;;;226.00;150.30;;;;;;;11.35;52.09;99508.77;234214;1204;139113;-64
2021/10/17 16:15:03;;;;;;;50.70;23.20;;;;;;;11.42;52.44;99515.55;234385;1203;139593;-61
2021/10/17 16:20:07;;;;;;;45.20;19.50;;;;;;;11.36;51.89;99513.36;234282;1203;139447;-61
2021/10/17 16:25:10;;;;;;;38.60;18.80;;;;;;;11.25;51.93;99517.92;234513;1204;138811;-61
2021/10/17 16:30:15;;;;;;;36.10;17.50;;;;;;;11.14;52.43;99516.25;234219;1204;138643;-62
2021/10/17 16:35:18;;;;;;;31.60;16.70;;;;;;;11.04;52.64;99512.21;234217;1190;138977;-62
2021/10/17 16:40:21;;;;;;;31.20;16.20;;;;;;;10.98;52.81;99516.26;233577;1204;139295;-62
2021/10/17 16:45:24;;;;;;;27.40;14.60;;;;;;;10.94;53.14;99519.16;234606;1204;138652;-62
2021/10/17 16:50:27;;;;;;;27.20;13.40;;;;;;;10.90;53.19;99521.14;234655;1203;139103;-61
2021/10/17 16:55:31;;;;;;;25.90;13.50;;;;;;;10.88;53.52;99518.75;234269;1203;138852;-62
2021/10/17 17:00:34;;;;;;;24.50;13.20;;;;;;;10.86;53.19;99519.91;234198;1203;139768;-59
2021/10/17 17:05:38;;;;;;;20.40;11.90;;;;;;;10.85;53.60;99522.13;234134;1204;138661;-61
2021/10/17 17:10:41;;;;;;;25.40;12.80;;;;;;;10.83;53.55;99524.17;234265;1204;140665;-64
2021/10/17 17:15:44;;;;;;;25.60;12.90;;;;;;;10.79;53.74;99520.52;234148;1205;138708;-62
2021/10/17 17:20:50;;;;;;;25.70;13.60;;;;;;;10.76;53.97;99519.25;234439;1204;139405;-62
2021/10/17 17:25:53;;;;;;;;;;;;;;;10.75;54.07;99516.65;234634;1203;139644;-62
2021/10/17 17:30:56;;;;;;;22.30;13.40;;;;;;;10.68;54.37;99512.44;234678;1204;125874;-65
2021/10/17 17:35:59;;;;;;;21.20;13.30;;;;;;;10.62;54.34;99517.14;234489;1204;139455;-64
2021/10/17 17:41:03;;;;;;;29.00;13.50;;;;;;;10.60;54.79;99528.79;234756;1204;139360;-63
2021/10/17 17:46:07;;;;;;;46.50;27.20;;;;;;;10.63;55.58;99526.52;234625;1204;139116;-63
2021/10/17 17:51:10;;;;;;;28.30;16.10;;;;;;;10.74;55.73;99520.23;234677;1203;139594;-58
2021/10/17 17:56:13;;;;;;;34.20;16.60;;;;;;;10.70;55.62;99519.77;234631;1198;138748;-57
2021/10/17 18:01:16;;;;;;;33.50;15.30;;;;;;;10.62;55.59;99517.52;234582;1204;140170;-60
2021/10/17 18:06:19;;;;;;;31.00;16.50;;;;;;;10.58;55.98;99515.98;234135;1204;138862;-61
2021/10/17 18:11:23;;;;;;;31.20;17.20;;;;;;;10.53;56.39;99509.14;234482;1204;138880;-62
2021/10/17 18:16:27;;;;;;;32.70;16.90;;;;;;;10.49;56.11;99511.67;234364;1204;139482;-61
2021/10/17 18:21:30;;;;;;;40.20;24.70;;;;;;;10.46;56.25;99514.69;234560;1204;138601;-60
2021/10/17 18:26:33;;;;;;;37.30;19.10;;;;;;;10.55;57.34;99515.23;234355;1203;138707;-60
2021/10/17 18:31:36;;;;;;;30.90;17.20;;;;;;;10.61;56.91;99517.20;234598;1204;138767;-62
2021/10/17 18:36:39;;;;;;;30.40;17.60;;;;;;;10.54;56.41;99523.27;234650;1203;140932;-61
2021/10/17 18:41:42;;;;;;;31.00;16.70;;;;;;;10.48;56.73;99519.35;234510;1203;139404;-60
2021/10/17 18:46:46;;;;;;;30.00;17.40;;;;;;;10.41;56.89;99522.75;234467;1204;139164;-59
2021/10/17 18:51:49;;;;;;;24.40;13.90;;;;;;;10.38;56.64;99525.18;234037;1204;139570;-62
2021/10/17 18:56:52;;;;;;;29.20;14.60;;;;;;;10.38;56.36;99526.80;234064;1204;138998;-60
2021/10/17 19:01:55;;;;;;;27.50;15.80;;;;;;;10.42;56.81;99524.84;234429;1204;139662;-58
2021/10/17 19:06:59;;;;;;;28.20;18.10;;;;;;;10.42;57.22;99528.86;234571;1204;139243;-59
2021/10/17 19:12:03;;;;;;;37.60;20.80;;;;;;;10.48;57.36;99526.30;234625;1203;139366;-60
2021/10/17 19:17:06;;;;;;;38.30;21.70;;;;;;;10.51;57.68;99531.44;234620;1204;139445;-61
2021/10/17 19:22:09;;;;;;;31.60;18.60;;;;;;;10.50;57.98;99528.10;234341;1203;140155;-61
2021/10/17 19:27:13;;;;;;;32.50;17.50;;;;;;;10.51;57.72;99532.52;234666;1204;138883;-61
2021/10/17 19:32:16;;;;;;;28.60;15.90;;;;;;;10.49;57.77;99536.70;234341;1204;138506;-61
2021/10/17 19:37:20;;;;;;;29.30;14.80;;;;;;;10.45;57.90;99537.95;234627;1203;141020;-62
2021/10/17 19:42:23;;;;;;;24.60;12.40;;;;;;;10.42;57.84;99545.06;234612;1204;140268;-59
2021/10/17 19:47:26;;;;;;;28.40;13.70;;;;;;;10.37;57.56;99547.58;234586;1204;139595;-59
2021/10/17 19:52:29;;;;;;;27.70;14.20;;;;;;;10.39;57.22;99553.02;234150;1204;138383;-60
2021/10/17 19:57:33;;;;;;;29.20;13.80;;;;;;;10.42;57.00;99552.50;234360;1204;139111;-60
2021/10/17 20:02:36;;;;;;;23.90;12.30;;;;;;;10.41;57.07;99554.87;234611;1204;139337;-61
2021/10/17 20:07:40;;;;;;;22.90;12.50;;;;;;;10.33;56.83;99558.48;234191;1204;139053;-60
2021/10/17 20:12:43;;;;;;;20.20;11.40;;;;;;;10.28;56.87;99559.80;234563;1204;139506;-60
2021/10/17 20:17:46;;;;;;;24.30;11.00;;;;;;;10.27;56.73;99559.50;234211;1203;139499;-61
2021/10/17 20:22:49;;;;;;;20.60;11.10;;;;;;;10.28;56.80;99562.83;234775;1203;138503;-58
2021/10/17 20:27:57;;;;;;;25.80;14.00;;;;;;;10.27;57.08;99568.19;234665;1203;139980;-60
2021/10/17 20:33:02;;;;;;;27.60;16.30;;;;;;;10.29;57.07;99566.50;234603;1203;140221;-62
2021/10/17 20:43:28;;;;;;;31.40;17.30;;;;;;;10.23;57.55;99563.73;234545;1204;139152;-61
2021/10/17 20:48:31;;;;;;;35.10;18.00;;;;;;;10.23;57.65;99559.84;234379;1203;139066;-61
2021/10/17 20:53:34;;;;;;;30.10;17.60;;;;;;;10.21;57.50;99562.95;234203;1204;139497;-59
2021/10/17 20:58:40;;;;;;;34.00;17.30;;;;;;;10.18;57.58;99560.78;233652;1204;139138;-63
2021/10/17 21:03:46;;;;;;;27.40;15.80;;;;;;;10.16;57.44;99566.38;234406;1204;139036;-62
2021/10/17 21:08:49;;;;;;;28.40;15.90;;;;;;;10.13;57.41;99564.09;233939;1204;138856;-62
2021/10/17 21:13:53;;;;;;;27.10;15.70;;;;;;;10.14;57.46;99560.85;234585;1203;138726;-60
2021/10/17 21:18:56;;;;;;;30.10;16.80;;;;;;;10.13;57.51;99556.43;234558;1204;139468;-61
2021/10/17 21:23:59;;;;;;;31.10;16.00;;;;;;;10.09;57.39;99560.76;234557;1204;138598;-59
2021/10/17 21:29:03;;;;;;;28.70;15.70;;;;;;;10.01;57.27;99556.04;234541;1204;139349;-59
2021/10/17 21:34:06;;;;;;;28.20;16.50;;;;;;;9.93;57.62;99558.92;234363;1204;139147;-59
2021/10/17 21:39:09;;;;;;;30.30;16.10;;;;;;;9.92;57.23;99563.59;234621;1204;138494;-59
2021/10/17 21:44:12;;;;;;;27.80;16.20;;;;;;;9.94;57.44;99565.06;234544;1204;140581;-60
2021/10/17 21:49:15;;;;;;;339.60;207.40;;;;;;;9.99;57.66;99562.53;234388;1204;138790;-59
2021/10/17 21:54:18;;;;;;;90.70;43.00;;;;;;;10.10;57.94;99558.58;234210;1205;140334;-60
2021/10/17 21:59:22;;;;;;;29.30;18.30;;;;;;;10.18;57.74;99557.25;234590;1204;139890;-60
2021/10/17 22:04:25;;;;;;;44.60;21.60;;;;;;;10.24;57.90;99559.11;234578;1203;211055;-61
2021/10/17 22:09:31;;;;;;;42.70;26.50;;;;;;;10.23;57.93;99563.39;234236;1205;138947;-61
2021/10/17 22:14:34;;;;;;;45.10;26.70;;;;;;;10.08;57.87;99563.43;234554;1205;138727;-59
2021/10/17 22:19:37;;;;;;;47.30;28.50;;;;;;;10.00;58.17;99557.33;234468;1204;139239;-57
2021/10/17 22:24:40;;;;;;;50.40;27.10;;;;;;;9.91;58.03;99564.84;234590;1204;139242;-61
2021/10/17 22:29:43;;;;;;;47.60;27.40;;;;;;;9.83;57.87;99564.59;234625;1204;139642;-60
2021/10/17 22:34:47;;;;;;;44.10;25.60;;;;;;;9.81;58.30;99566.98;234023;1204;139105;-58
2021/10/17 22:39:50;;;;;;;47.20;25.50;;;;;;;9.79;58.37;99560.85;234590;1205;138796;-57
2021/10/17 22:44:53;;;;;;;44.60;26.20;;;;;;;9.79;58.71;99558.40;234509;1204;138514;-60
2021/10/17 22:49:56;;;;;;;44.50;24.30;;;;;;;9.70;58.25;99557.61;234031;1205;138819;-60
2021/10/17 22:54:59;;;;;;;44.60;26.70;;;;;;;9.60;58.33;99556.13;234514;1205;138355;-60
2021/10/17 23:00:07;;;;;;;42.40;25.10;;;;;;;9.56;58.59;99559.35;234418;1204;139243;-62
2021/10/17 23:05:11;;;;;;;40.90;24.20;;;;;;;9.53;58.69;99557.02;234653;1205;141175;-59